Welkom op de website van Weerstation Hoek van Holland.

Onweer radar Meer informatie blitzortung!


Regen radar Meer informatie rain snow radar



METAR rapporten vliegvelden

   
EHRD - Rotterdam International Airport, NL
Afstand tot: Oost 31 km
Gewijzigd: 24-06-2019 15:55
Gedeeltelijk bewolkt  
Gedeeltelijk bewolkt  
   Wind: Zuiden 18.5 km/h
Wind: Zuiden 18.5 km/h
Temperatuur: 31°C
Gevoelstemperatuur: 32°C
Dauwpunt: 18°C
Vochtigheid: 46%
Barometer: 1017 hPa
Bewolking: Partly Cloudy
Zicht: meer dan 10 km
Bewolking: Gedeeltelijk bewolkt ft
EHRD 241355Z AUTO 19010KT 130V250 9999 NSC 31/18 Q1017 NOSIG
EHAM - Amsterdam Schiphol, NL
Afstand tot: Noord 17 km
Gewijzigd: 24-06-2019 15:55
Helder  
Helder  
   Wind: ZZO 18.5 km/h
Wind: ZZO 18.5 km/h
Temperatuur: 30°C
Gevoelstemperatuur: 31°C
Dauwpunt: 18°C
Vochtigheid: 49%
Barometer: 1017 hPa
Zicht: meer dan 10 km
Bewolking: Helder ft
EHAM 241355Z 15010KT 110V180 CAVOK 30/18 Q1017 NOSIG
EBAW - Antwerpen/Deurne, B
Afstand tot: Zuid 138 km
Gewijzigd: 24-06-2019 15:50
Helder  
Helder  
   Wind: ZO 9.3 km/h
Wind: ZO 9.3 km/h
Temperatuur: 31°C
Gevoelstemperatuur: 31°C
Dauwpunt: 17°C
Vochtigheid: 43%
Barometer: 1017 hPa
Zicht: meer dan 10 km
Bewolking: Helder ft
EBAW 241350Z 14005KT 010V180 CAVOK 31/17 Q1017 NOSIG
EHEH - Eindhoven, NL
Afstand tot: OZO 140 km
Gewijzigd: 24-06-2019 15:55
Bewolking  
Bewolking  
   Wind: varieert 9.3 km/h
Wind: varieert 9.3 km/h
Temperatuur: 31°C
Gevoelstemperatuur: 31°C
Dauwpunt: 17°C
Vochtigheid: 43%
Barometer: 1017 hPa
Bewolking: Overcast
Zicht: meer dan 10 km
Bewolking: Licht bewolkt 5600 ft,
Bewolking 15000 ft
EHEH 241355Z AUTO VRB05KT 9999 FEW056 OVC150 31/17 Q1017 BLU 13007KT CAVOK
  

Script ontwikkeld door  Saratoga-weather.org Aangepast voor de template door  Weerstation Leuven

Apparatuur in gebruik:

Weerstation
Davis VP2

Weerprogramma
Meteobridge

Weercomputer
meteobridge met meteostick

Webleverancier
Strato

Davis VP2

Meteobridge

meteobridge met meteostick

Strato